createdAt,value
2017-04-10T00:01:06.720Z,0
2017-04-10T00:02:18.976Z,0
2017-04-10T00:03:31.515Z,0
2017-04-10T00:04:44.032Z,0
2017-04-10T00:05:56.561Z,0
2017-04-10T00:07:09.074Z,0
2017-04-10T00:08:21.903Z,0
2017-04-10T00:09:34.129Z,0
2017-04-10T00:10:46.726Z,0
2017-04-10T00:11:59.258Z,0
2017-04-10T00:13:11.807Z,0
2017-04-10T00:14:24.324Z,0
2017-04-10T00:15:36.829Z,0
2017-04-10T00:16:49.366Z,0
2017-04-10T00:18:01.870Z,0
2017-04-10T00:19:14.617Z,0
2017-04-10T00:20:27.129Z,0
2017-04-10T00:21:39.662Z,0
2017-04-10T00:22:52.220Z,0
2017-04-10T00:24:04.454Z,0
2017-04-10T00:25:16.699Z,0
2017-04-10T00:26:29.221Z,0
2017-04-10T00:27:41.739Z,0
2017-04-10T00:28:53.958Z,0
2017-04-10T00:30:06.800Z,0
2017-04-10T00:31:19.055Z,0
2017-04-10T00:32:31.618Z,0
2017-04-10T00:33:44.145Z,0
2017-04-10T00:34:56.680Z,0
2017-04-10T00:36:09.208Z,0
2017-04-10T00:37:21.425Z,0
2017-04-10T00:38:33.930Z,0
2017-04-10T00:39:46.501Z,0
2017-04-10T00:40:59.346Z,0
2017-04-10T00:42:11.907Z,0
2017-04-10T00:43:24.465Z,0
2017-04-10T00:44:37.005Z,0
2017-04-10T00:45:49.551Z,0
2017-04-10T00:47:02.072Z,0
2017-04-10T00:48:14.016Z,0
2017-04-10T00:49:26.580Z,0
2017-04-10T00:50:38.809Z,0
2017-04-10T00:51:50.731Z,0
2017-04-10T00:53:03.255Z,0
2017-04-10T00:54:15.776Z,0
2017-04-10T00:55:28.268Z,0
2017-04-10T00:56:40.521Z,0
2017-04-10T00:57:53.036Z,0
2017-04-10T00:59:05.556Z,0
2017-04-10T01:00:17.770Z,0
2017-04-10T01:01:30.321Z,0
2017-04-10T01:02:42.848Z,0
2017-04-10T01:03:55.458Z,0
2017-04-10T01:05:08.006Z,0
2017-04-10T01:06:20.507Z,0
2017-04-10T01:07:33.064Z,0
2017-04-10T01:08:45.577Z,0
2017-04-10T01:09:58.098Z,0
2017-04-10T01:11:10.650Z,0
2017-04-10T01:12:23.191Z,0
2017-04-10T01:13:35.982Z,0
2017-04-10T01:14:48.195Z,0
2017-04-10T01:16:00.752Z,0
2017-04-10T01:17:13.274Z,0
2017-04-10T01:18:25.833Z,0
2017-04-10T01:19:38.358Z,0
2017-04-10T01:20:50.585Z,0
2017-04-10T01:22:03.124Z,0
2017-04-10T01:23:15.029Z,0
2017-04-10T01:24:27.595Z,0
2017-04-10T01:25:40.120Z,0
2017-04-10T01:26:52.669Z,0
2017-04-10T01:28:04.883Z,0
2017-04-10T01:29:17.707Z,0
2017-04-10T01:30:30.254Z,0
2017-04-10T01:31:42.844Z,0
2017-04-10T01:32:55.394Z,0
2017-04-10T01:34:07.891Z,0
2017-04-10T01:35:20.453Z,0
2017-04-10T01:36:32.655Z,0
2017-04-10T01:37:45.176Z,0
2017-04-10T01:38:57.722Z,0
2017-04-10T01:40:09.934Z,0
2017-04-10T01:41:22.430Z,0
2017-04-10T01:42:34.659Z,0
2017-04-10T01:43:47.172Z,0
2017-04-10T01:44:59.678Z,0
2017-04-10T01:46:12.451Z,0
2017-04-10T01:47:24.671Z,0
2017-04-10T01:48:37.217Z,0
2017-04-10T01:49:49.734Z,0
2017-04-10T01:51:02.611Z,0
2017-04-10T01:52:15.154Z,0
2017-04-10T01:53:27.703Z,0
2017-04-10T01:54:40.221Z,0
2017-04-10T01:55:52.742Z,0
2017-04-10T01:57:05.260Z,0
2017-04-10T01:58:17.781Z,0
2017-04-10T01:59:30.330Z,0
2017-04-10T02:00:42.547Z,0
2017-04-10T02:01:55.061Z,0
2017-04-10T02:03:07.568Z,0
2017-04-10T02:04:20.110Z,0
2017-04-10T02:05:32.648Z,0
2017-04-10T02:06:44.577Z,0
2017-04-10T02:07:57.073Z,0
2017-04-10T02:09:09.588Z,0
2017-04-10T02:10:22.134Z,0
2017-04-10T02:11:34.678Z,0
2017-04-10T02:12:47.484Z,0
2017-04-10T02:14:00.003Z,0
2017-04-10T02:15:12.251Z,0
2017-04-10T02:16:24.469Z,0
2017-04-10T02:17:36.991Z,0
2017-04-10T02:18:49.520Z,0
2017-04-10T02:20:02.058Z,0
2017-04-10T02:21:14.553Z,0
2017-04-10T02:22:26.798Z,0
2017-04-10T02:23:39.028Z,0
2017-04-10T02:24:51.569Z,0
2017-04-10T02:26:04.115Z,0
2017-04-10T02:27:16.634Z,0
2017-04-10T02:28:28.857Z,0
2017-04-10T02:29:41.095Z,0
2017-04-10T02:30:53.641Z,0
2017-04-10T02:32:06.174Z,0
2017-04-10T02:33:18.712Z,0
2017-04-10T02:34:31.238Z,0
2017-04-10T02:35:43.471Z,0
2017-04-10T02:36:55.692Z,0
2017-04-10T02:38:08.222Z,0
2017-04-10T02:39:20.766Z,0
2017-04-10T02:40:33.291Z,0
2017-04-10T02:41:45.839Z,0
2017-04-10T02:42:58.380Z,0
2017-04-10T02:44:10.605Z,0
2017-04-10T02:45:23.120Z,0
2017-04-10T02:46:35.320Z,0
2017-04-10T02:47:47.817Z,0
2017-04-10T02:49:00.359Z,0
2017-04-10T02:50:12.882Z,0
2017-04-10T02:51:25.401Z,0
2017-04-10T02:52:37.917Z,0
2017-04-10T02:53:50.445Z,0
2017-04-10T02:55:02.991Z,0
2017-04-10T02:56:15.512Z,0
2017-04-10T02:57:28.058Z,0
2017-04-10T02:58:40.593Z,0
2017-04-10T02:59:53.118Z,0
2017-04-10T03:01:05.618Z,0
2017-04-10T03:02:17.543Z,0
2017-04-10T03:03:30.038Z,0
2017-04-10T03:04:42.573Z,0
2017-04-10T03:05:55.118Z,0
2017-04-10T03:07:07.352Z,0
2017-04-10T03:08:19.922Z,0
2017-04-10T03:09:32.445Z,0
2017-04-10T03:10:45.003Z,0
2017-04-10T03:11:57.238Z,0
2017-04-10T03:13:09.755Z,0
2017-04-10T03:14:21.676Z,0
2017-04-10T03:15:33.898Z,0
2017-04-10T03:16:46.414Z,0
2017-04-10T03:17:58.933Z,0
2017-04-10T03:19:11.164Z,0
2017-04-10T03:20:23.699Z,0
2017-04-10T03:21:36.199Z,0
2017-04-10T03:22:48.171Z,0
2017-04-10T03:24:00.968Z,0
2017-04-10T03:25:13.491Z,0
2017-04-10T03:26:25.732Z,0
2017-04-10T03:27:38.258Z,0
2017-04-10T03:28:50.501Z,0
2017-04-10T03:30:03.020Z,0
2017-04-10T03:31:15.243Z,0
2017-04-10T03:32:27.168Z,0
2017-04-10T03:33:39.685Z,0
2017-04-10T03:34:51.907Z,0
2017-04-10T03:36:04.454Z,0
2017-04-10T03:37:17.014Z,0
2017-04-10T03:38:29.545Z,0
2017-04-10T03:39:42.066Z,0
2017-04-10T03:40:54.636Z,0
2017-04-10T03:42:06.846Z,0
2017-04-10T03:43:19.091Z,0
2017-04-10T03:44:31.626Z,0
2017-04-10T03:45:44.121Z,0
2017-04-10T03:46:56.646Z,0
2017-04-10T03:48:09.161Z,0
2017-04-10T03:49:21.382Z,0
2017-04-10T03:50:33.617Z,0
2017-04-10T03:51:46.121Z,0
2017-04-10T03:52:58.645Z,0
2017-04-10T03:54:11.183Z,0
2017-04-10T03:55:23.688Z,0
2017-04-10T03:56:35.905Z,0
2017-04-10T03:57:48.449Z,0
2017-04-10T03:59:00.989Z,0
2017-04-10T04:00:13.543Z,0
2017-04-10T04:01:26.067Z,0
2017-04-10T04:02:38.302Z,0
2017-04-10T04:03:50.810Z,0
2017-04-10T04:05:03.344Z,0
2017-04-10T04:06:15.872Z,0
2017-04-10T04:07:28.700Z,0
2017-04-10T04:08:41.249Z,5
2017-04-10T04:09:53.785Z,5
2017-04-10T04:11:06.312Z,5
2017-04-10T04:12:18.532Z,5
2017-04-10T04:13:31.068Z,5
2017-04-10T04:14:43.619Z,10
2017-04-10T04:15:56.115Z,10
2017-04-10T04:17:08.619Z,10
2017-04-10T04:18:21.135Z,10
2017-04-10T04:19:33.659Z,15
2017-04-10T04:20:45.902Z,15
2017-04-10T04:21:58.465Z,15
2017-04-10T04:23:10.994Z,20
2017-04-10T04:24:23.536Z,20
2017-04-10T04:25:36.059Z,25
2017-04-10T04:26:48.602Z,25
2017-04-10T04:28:01.132Z,30
2017-04-10T04:29:13.650Z,30
2017-04-10T04:30:26.171Z,35
2017-04-10T04:31:38.415Z,35
2017-04-10T04:32:50.987Z,40
2017-04-10T04:34:03.221Z,40
2017-04-10T04:35:15.766Z,45
2017-04-10T04:36:28.295Z,45
2017-04-10T04:37:40.819Z,50
2017-04-10T04:38:53.040Z,50
2017-04-10T04:40:05.860Z,55
2017-04-10T04:41:18.382Z,60
2017-04-10T04:42:30.879Z,60
2017-04-10T04:43:43.440Z,65
2017-04-10T04:44:55.987Z,70
2017-04-10T04:46:08.517Z,70
2017-04-10T04:47:21.033Z,75
2017-04-10T04:48:33.529Z,80
2017-04-10T04:49:46.056Z,80
2017-04-10T04:50:58.839Z,85
2017-04-10T04:52:11.392Z,85
2017-04-10T04:53:23.617Z,90
2017-04-10T04:54:36.138Z,95
2017-04-10T04:55:48.378Z,95
2017-04-10T04:57:00.907Z,100
2017-04-10T04:58:13.446Z,105
2017-04-10T04:59:25.951Z,105
2017-04-10T05:00:38.492Z,110
2017-04-10T05:01:51.264Z,115
2017-04-10T05:03:03.809Z,115
2017-04-10T05:04:16.078Z,120
2017-04-10T05:05:28.593Z,125
2017-04-10T05:06:41.122Z,125
2017-04-10T05:07:53.639Z,130
2017-04-10T05:09:06.136Z,135
2017-04-10T05:10:18.659Z,135
2017-04-10T05:11:31.201Z,140
2017-04-10T05:12:44.018Z,145
2017-04-10T05:13:56.572Z,145
2017-04-10T05:15:09.107Z,150
2017-04-10T05:16:21.635Z,150
2017-04-10T05:17:34.172Z,155
2017-04-10T05:18:46.656Z,160
2017-04-10T05:19:58.872Z,160
2017-04-10T05:21:11.410Z,165
2017-04-10T05:22:23.960Z,165
2017-04-10T05:23:36.735Z,170
2017-04-10T05:24:49.256Z,175
2017-04-10T05:26:01.784Z,175
2017-04-10T05:27:14.023Z,180
2017-04-10T05:28:26.548Z,180
2017-04-10T05:29:38.789Z,185
2017-04-10T05:30:51.302Z,185
2017-04-10T05:32:03.549Z,190
2017-04-10T05:33:15.178Z,195
2017-04-10T05:34:27.719Z,195
2017-04-10T05:35:40.251Z,200
2017-04-10T05:36:52.794Z,200
2017-04-10T05:38:05.337Z,205
2017-04-10T05:39:17.857Z,205
2017-04-10T05:40:30.395Z,210
2017-04-10T05:41:42.949Z,210
2017-04-10T05:42:55.449Z,210
2017-04-10T05:44:07.966Z,215
2017-04-10T05:45:20.188Z,215
2017-04-10T05:46:32.728Z,220
2017-04-10T05:47:45.281Z,225
2017-04-10T05:48:57.808Z,225
2017-04-10T05:50:10.063Z,230
2017-04-10T05:51:22.613Z,235
2017-04-10T05:52:35.141Z,240
2017-04-10T05:53:47.679Z,240
2017-04-10T05:55:00.200Z,240
2017-04-10T05:56:12.425Z,245
2017-04-10T05:57:24.949Z,255
2017-04-10T05:58:37.166Z,245
2017-04-10T05:59:49.387Z,255
2017-04-10T06:01:01.938Z,260
2017-04-10T06:02:14.480Z,270
2017-04-10T06:03:26.976Z,290
2017-04-10T06:04:39.501Z,370
2017-04-10T06:05:52.035Z,430
2017-04-10T06:07:04.559Z,425
2017-04-10T06:08:16.789Z,310
2017-04-10T06:09:29.031Z,305
2017-04-10T06:10:41.279Z,305
2017-04-10T06:11:53.823Z,300
2017-04-10T06:13:06.384Z,295
2017-04-10T06:14:18.918Z,305
2017-04-10T06:15:31.460Z,300
2017-04-10T06:16:43.684Z,300
2017-04-10T06:17:56.472Z,315
2017-04-10T06:19:09.018Z,395
2017-04-10T06:20:21.561Z,390
2017-04-10T06:21:33.781Z,355
2017-04-10T06:22:46.019Z,350
2017-04-10T06:23:58.557Z,325
2017-04-10T06:25:10.780Z,330
2017-04-10T06:26:23.320Z,335
2017-04-10T06:27:35.844Z,345
2017-04-10T06:28:48.072Z,365
2017-04-10T06:30:00.588Z,445
2017-04-10T06:31:12.828Z,535
2017-04-10T06:32:25.353Z,730
2017-04-10T06:33:37.890Z,780
2017-04-10T06:34:50.403Z,830
2017-04-10T06:36:02.920Z,795
2017-04-10T06:37:15.165Z,750
2017-04-10T06:38:27.711Z,810
2017-04-10T06:39:39.957Z,880
2017-04-10T06:40:52.208Z,940
2017-04-10T06:42:04.419Z,895
2017-04-10T06:43:16.961Z,975
2017-04-10T06:44:29.508Z,1120
2017-04-10T06:45:42.067Z,1160
2017-04-10T06:46:54.621Z,1160
2017-04-10T06:48:07.157Z,1160
2017-04-10T06:49:19.722Z,1230
2017-04-10T06:50:32.241Z,1195
2017-04-10T06:51:44.768Z,1215
2017-04-10T06:52:57.311Z,1225
2017-04-10T06:54:09.556Z,1245
2017-04-10T06:55:22.075Z,1255
2017-04-10T06:56:34.595Z,1245
2017-04-10T06:57:47.119Z,1270
2017-04-10T06:58:59.667Z,1250
2017-04-10T07:00:12.188Z,1305
2017-04-10T07:01:24.750Z,1350
2017-04-10T07:02:37.276Z,975
2017-04-10T07:03:49.477Z,785
2017-04-10T07:05:02.020Z,595
2017-04-10T07:06:14.609Z,625
2017-04-10T07:07:27.141Z,535
2017-04-10T07:08:39.396Z,480
2017-04-10T07:09:51.928Z,475
2017-04-10T07:11:04.453Z,475
2017-04-10T07:12:16.997Z,495
2017-04-10T07:13:29.561Z,515
2017-04-10T07:14:41.759Z,520
2017-04-10T07:15:54.301Z,540
2017-04-10T07:17:06.800Z,515
2017-04-10T07:18:19.051Z,555
2017-04-10T07:19:31.288Z,565
2017-04-10T07:20:43.813Z,615
2017-04-10T07:21:56.362Z,535
2017-04-10T07:23:08.830Z,530
2017-04-10T07:24:21.072Z,505
2017-04-10T07:25:33.605Z,645
2017-04-10T07:26:46.147Z,660
2017-04-10T07:27:58.710Z,740
2017-04-10T07:29:11.278Z,945
2017-04-10T07:30:23.833Z,1165
2017-04-10T07:31:36.397Z,1405
2017-04-10T07:32:48.940Z,1230
2017-04-10T07:34:01.470Z,1300
2017-04-10T07:35:14.014Z,1255
2017-04-10T07:36:26.536Z,1330
2017-04-10T07:37:39.083Z,1520
2017-04-10T07:38:51.598Z,1650
2017-04-10T07:40:03.551Z,1705
2017-04-10T07:41:16.125Z,1645
2017-04-10T07:42:28.698Z,1630
2017-04-10T07:43:41.239Z,1705
2017-04-10T07:44:53.777Z,1740
2017-04-10T07:46:06.327Z,1780
2017-04-10T07:47:18.866Z,1855
2017-04-10T07:48:31.069Z,1930
2017-04-10T07:49:43.565Z,1780
2017-04-10T07:50:56.104Z,1785
2017-04-10T07:52:08.060Z,1945
2017-04-10T07:53:20.603Z,1835
2017-04-10T07:54:32.242Z,1210
2017-04-10T07:55:44.823Z,550
2017-04-10T07:56:57.369Z,490
2017-04-10T07:58:09.929Z,485
2017-04-10T07:59:22.477Z,485
2017-04-10T08:00:35.021Z,485
2017-04-10T08:01:47.295Z,485
2017-04-10T08:02:59.867Z,480
2017-04-10T08:04:12.408Z,480
2017-04-10T08:05:24.962Z,490
2017-04-10T08:06:37.500Z,490
2017-04-10T08:07:50.072Z,490
2017-04-10T08:09:02.300Z,490
2017-04-10T08:10:14.521Z,490
2017-04-10T08:11:27.041Z,490
2017-04-10T08:12:39.283Z,495
2017-04-10T08:13:51.540Z,490
2017-04-10T08:15:04.054Z,490
2017-04-10T08:16:16.305Z,495
2017-04-10T08:17:28.877Z,490
2017-04-10T08:18:41.117Z,490
2017-04-10T08:19:53.341Z,495
2017-04-10T08:21:05.558Z,500
2017-04-10T08:22:18.097Z,505
2017-04-10T08:23:30.628Z,500
2017-04-10T08:24:43.165Z,500
2017-04-10T08:25:55.688Z,505
2017-04-10T08:27:07.918Z,505
2017-04-10T08:28:20.484Z,505
2017-04-10T08:29:33.011Z,510
2017-04-10T08:30:45.252Z,505
2017-04-10T08:31:57.527Z,505
2017-04-10T08:33:10.075Z,500
2017-04-10T08:34:22.318Z,505
2017-04-10T08:35:34.839Z,505
2017-04-10T08:36:47.362Z,505
2017-04-10T08:37:59.901Z,505
2017-04-10T08:39:12.079Z,505
2017-04-10T08:40:24.636Z,505
2017-04-10T08:41:37.165Z,505
2017-04-10T08:42:49.677Z,500
2017-04-10T08:44:01.928Z,495
2017-04-10T08:45:14.473Z,500
2017-04-10T08:46:27.018Z,500
2017-04-10T08:47:39.572Z,495
2017-04-10T08:48:52.108Z,500
2017-04-10T08:50:04.040Z,500
2017-04-10T08:51:16.582Z,500
2017-04-10T08:52:28.531Z,510
2017-04-10T08:53:41.026Z,505
2017-04-10T08:54:53.248Z,505
2017-04-10T08:56:05.749Z,510
2017-04-10T08:57:18.312Z,510
2017-04-10T08:58:30.532Z,510
2017-04-10T08:59:42.773Z,510
2017-04-10T09:00:55.345Z,505
2017-04-10T09:02:07.573Z,500
2017-04-10T09:03:20.136Z,500
2017-04-10T09:04:32.667Z,500
2017-04-10T09:05:44.927Z,500
2017-04-10T09:06:57.479Z,500
2017-04-10T09:08:10.002Z,500
2017-04-10T09:09:22.516Z,500
2017-04-10T09:10:35.069Z,500
2017-04-10T09:11:47.312Z,505
2017-04-10T09:12:59.842Z,500
2017-04-10T09:14:12.096Z,505
2017-04-10T09:15:24.351Z,505
2017-04-10T09:16:36.913Z,510
2017-04-10T09:17:49.145Z,510
2017-04-10T09:19:01.364Z,505
2017-04-10T09:20:13.339Z,505
2017-04-10T09:21:25.883Z,505
2017-04-10T09:22:38.146Z,505
2017-04-10T09:23:50.700Z,505
2017-04-10T09:25:03.242Z,510
2017-04-10T09:26:15.784Z,510
2017-04-10T09:27:28.308Z,515
2017-04-10T09:28:40.230Z,520
2017-04-10T09:29:52.454Z,520
2017-04-10T09:31:05.013Z,520
2017-04-10T09:32:16.959Z,520
2017-04-10T09:33:28.907Z,535
2017-04-10T09:34:41.152Z,535
2017-04-10T09:35:53.685Z,550
2017-04-10T09:37:06.253Z,555
2017-04-10T09:38:18.492Z,565
2017-04-10T09:39:30.442Z,565
2017-04-10T09:40:42.642Z,575
2017-04-10T09:41:54.861Z,570
2017-04-10T09:43:06.815Z,580
2017-04-10T09:44:19.082Z,585
2017-04-10T09:45:31.323Z,595
2017-04-10T09:46:43.544Z,615
2017-04-10T09:47:55.474Z,620
2017-04-10T09:49:07.729Z,620
2017-04-10T09:50:19.682Z,630
2017-04-10T09:51:32.181Z,640
2017-04-10T09:52:44.431Z,645
2017-04-10T09:53:56.669Z,660
2017-04-10T09:55:08.907Z,660
2017-04-10T09:56:20.553Z,660
2017-04-10T09:57:32.802Z,665
2017-04-10T09:58:44.755Z,685
2017-04-10T09:59:56.717Z,690
2017-04-10T10:01:08.913Z,720
2017-04-10T10:02:20.847Z,735
2017-04-10T10:03:33.414Z,745
2017-04-10T10:04:45.937Z,755
2017-04-10T10:05:57.883Z,775
2017-04-10T10:07:09.848Z,780
2017-04-10T10:08:22.073Z,800
2017-04-10T10:09:34.292Z,795
2017-04-10T10:10:46.829Z,805
2017-04-10T10:11:58.783Z,860
2017-04-10T10:13:11.021Z,895
2017-04-10T10:14:23.232Z,940
2017-04-10T10:15:35.762Z,960
2017-04-10T10:16:47.412Z,985
2017-04-10T10:17:59.363Z,995
2017-04-10T10:19:11.287Z,1005
2017-04-10T10:20:23.533Z,1015
2017-04-10T10:21:36.092Z,995
2017-04-10T10:22:48.349Z,975
2017-04-10T10:24:00.896Z,955
2017-04-10T10:25:13.134Z,940
2017-04-10T10:26:25.437Z,1010
2017-04-10T10:27:37.698Z,1340
2017-04-10T10:28:49.645Z,1545
2017-04-10T10:30:02.197Z,1600
2017-04-10T10:31:14.422Z,1350
2017-04-10T10:32:26.664Z,1295
2017-04-10T10:33:39.202Z,1155
2017-04-10T10:34:51.747Z,1145
2017-04-10T10:36:03.104Z,1200
2017-04-10T10:37:15.026Z,1615
2017-04-10T10:38:27.272Z,1895
2017-04-10T10:39:39.790Z,1945
2017-04-10T10:40:51.428Z,1520
2017-04-10T10:42:03.677Z,1270
2017-04-10T10:43:15.952Z,1715
2017-04-10T10:44:28.515Z,1920
2017-04-10T10:45:40.763Z,2245
2017-04-10T10:46:53.032Z,2350
2017-04-10T10:48:04.966Z,2490
2017-04-10T10:49:16.911Z,2015
2017-04-10T10:50:28.878Z,1935
2017-04-10T10:51:40.803Z,2250
2017-04-10T10:52:52.748Z,2190
2017-04-10T10:54:04.673Z,2205
2017-04-10T10:55:17.217Z,1525
2017-04-10T10:56:29.485Z,1835
2017-04-10T10:57:41.686Z,1485
2017-04-10T10:58:53.924Z,1470
2017-04-10T11:00:06.195Z,1390
2017-04-10T11:01:17.858Z,1315
2017-04-10T11:02:30.408Z,1510
2017-04-10T11:03:42.974Z,1600
2017-04-10T11:04:54.649Z,2505
2017-04-10T11:06:07.200Z,2530
2017-04-10T11:07:19.740Z,2765
2017-04-10T11:08:31.666Z,2640
2017-04-10T11:09:43.593Z,2750
2017-04-10T11:10:55.813Z,2820
2017-04-10T11:12:07.472Z,2925
2017-04-10T11:13:20.030Z,2730
2017-04-10T11:14:32.590Z,2705
2017-04-10T11:15:44.845Z,2115
2017-04-10T11:16:57.416Z,2130
2017-04-10T11:18:09.660Z,2385
2017-04-10T11:19:21.881Z,2735
2017-04-10T11:20:33.825Z,2675
2017-04-10T11:21:45.188Z,2915
2017-04-10T11:22:56.848Z,2865
2017-04-10T11:24:09.109Z,2335
2017-04-10T11:25:21.380Z,1035
2017-04-10T11:26:33.662Z,1165
2017-04-10T11:27:45.944Z,1955
2017-04-10T11:28:58.514Z,1985
2017-04-10T11:30:10.746Z,1035
2017-04-10T11:31:22.396Z,1060
2017-04-10T11:32:34.336Z,1055
2017-04-10T11:33:46.285Z,1115
2017-04-10T11:34:58.860Z,1155
2017-04-10T11:36:10.852Z,1185
2017-04-10T11:37:23.119Z,1310
2017-04-10T11:38:35.043Z,2410
2017-04-10T11:39:47.291Z,1220
2017-04-10T11:40:59.867Z,1635
2017-04-10T11:42:12.146Z,1260
2017-04-10T11:43:24.419Z,2805
2017-04-10T11:44:36.965Z,1400
2017-04-10T11:45:49.520Z,1910
2017-04-10T11:47:01.770Z,3200
2017-04-10T11:48:13.986Z,2955
2017-04-10T11:49:26.548Z,1435
2017-04-10T11:50:39.123Z,1310
2017-04-10T11:51:51.044Z,1640
2017-04-10T11:53:03.286Z,1270
2017-04-10T11:54:15.216Z,1500
2017-04-10T11:55:27.763Z,1670
2017-04-10T11:56:40.308Z,3225
2017-04-10T11:57:52.554Z,1955
2017-04-10T11:59:05.114Z,1545
2017-04-10T12:00:17.396Z,1240
2017-04-10T12:01:29.989Z,1185
2017-04-10T12:02:42.233Z,1105
2017-04-10T12:03:54.796Z,2160
2017-04-10T12:05:07.025Z,1215
2017-04-10T12:06:19.574Z,1215
2017-04-10T12:07:32.141Z,2075
2017-04-10T12:08:44.388Z,1055
2017-04-10T12:09:56.980Z,940
2017-04-10T12:11:09.208Z,930
2017-04-10T12:12:21.771Z,805
2017-04-10T12:13:34.275Z,785
2017-04-10T12:14:46.521Z,995
2017-04-10T12:15:59.038Z,1295
2017-04-10T12:17:11.280Z,1085
2017-04-10T12:18:23.808Z,935
2017-04-10T12:19:36.073Z,1030
2017-04-10T12:20:48.596Z,1000
2017-04-10T12:22:00.538Z,1010
2017-04-10T12:23:12.781Z,925
2017-04-10T12:24:25.002Z,910
2017-04-10T12:25:37.273Z,940
2017-04-10T12:26:49.795Z,915
2017-04-10T12:28:02.331Z,970
2017-04-10T12:29:14.590Z,975
2017-04-10T12:30:27.122Z,1035
2017-04-10T12:31:39.380Z,1040
2017-04-10T12:32:51.908Z,975
2017-04-10T12:34:04.449Z,895
2017-04-10T12:35:16.102Z,880
2017-04-10T12:36:28.645Z,855
2017-04-10T12:37:41.495Z,735
2017-04-10T12:38:54.065Z,670
2017-04-10T12:40:06.613Z,570
2017-04-10T12:41:18.548Z,565
2017-04-10T12:42:31.077Z,605
2017-04-10T12:43:43.319Z,690
2017-04-10T12:44:55.818Z,685
2017-04-10T12:46:08.079Z,750
2017-04-10T12:47:20.316Z,800
2017-04-10T12:48:32.857Z,825
2017-04-10T12:49:45.403Z,840
2017-04-10T12:50:57.951Z,795
2017-04-10T12:52:10.195Z,835
2017-04-10T12:53:22.715Z,915
2017-04-10T12:54:34.950Z,1125
2017-04-10T12:55:47.504Z,1120
2017-04-10T12:57:00.053Z,1075
2017-04-10T12:58:12.587Z,1120
2017-04-10T12:59:25.092Z,1070
2017-04-10T13:00:37.635Z,1045
2017-04-10T13:01:50.179Z,1085
2017-04-10T13:03:02.422Z,1215
2017-04-10T13:04:14.649Z,1175
2017-04-10T13:05:27.221Z,1290
2017-04-10T13:06:39.141Z,1360
2017-04-10T13:07:51.687Z,1315
2017-04-10T13:09:04.233Z,1255
2017-04-10T13:10:16.226Z,1265
2017-04-10T13:11:28.743Z,1265
2017-04-10T13:12:41.289Z,1180
2017-04-10T13:13:53.539Z,970
2017-04-10T13:15:05.792Z,975
2017-04-10T13:16:18.354Z,930
2017-04-10T13:17:30.605Z,915
2017-04-10T13:18:42.846Z,975
2017-04-10T13:19:55.399Z,1015
2017-04-10T13:21:07.621Z,1110
2017-04-10T13:22:20.165Z,1085
2017-04-10T13:23:32.680Z,1060
2017-04-10T13:24:45.238Z,1110
2017-04-10T13:25:57.476Z,1060
2017-04-10T13:27:10.030Z,835
2017-04-10T13:28:22.610Z,815
2017-04-10T13:29:34.571Z,865
2017-04-10T13:30:46.840Z,1035
2017-04-10T13:31:59.081Z,950
2017-04-10T13:33:11.046Z,1015
2017-04-10T13:34:23.000Z,900
2017-04-10T13:35:34.647Z,815
2017-04-10T13:36:47.218Z,715
2017-04-10T13:37:59.440Z,630
2017-04-10T13:39:11.673Z,595
2017-04-10T13:40:23.881Z,525
2017-04-10T13:41:36.422Z,520
2017-04-10T13:42:48.414Z,580
2017-04-10T13:44:00.968Z,585
2017-04-10T13:45:13.514Z,515
2017-04-10T13:46:26.027Z,450
2017-04-10T13:47:37.679Z,475
2017-04-10T13:48:49.941Z,640
2017-04-10T13:50:02.469Z,705
2017-04-10T13:51:14.694Z,680
2017-04-10T13:52:26.336Z,785
2017-04-10T13:53:38.558Z,865
2017-04-10T13:54:50.499Z,1060
2017-04-10T13:56:03.028Z,1050
2017-04-10T13:57:15.249Z,950
2017-04-10T13:58:27.466Z,950
2017-04-10T13:59:40.017Z,965
2017-04-10T14:00:51.974Z,910
2017-04-10T14:02:04.209Z,860
2017-04-10T14:03:16.153Z,945
2017-04-10T14:04:28.687Z,780
2017-04-10T14:05:40.595Z,740
2017-04-10T14:06:52.558Z,745
2017-04-10T14:08:04.204Z,735
2017-04-10T14:09:16.439Z,700
2017-04-10T14:10:28.678Z,725
2017-04-10T14:11:40.917Z,720
2017-04-10T14:12:53.442Z,705
2017-04-10T14:14:05.962Z,750
2017-04-10T14:15:18.209Z,730
2017-04-10T14:16:30.776Z,670
2017-04-10T14:17:43.305Z,655
2017-04-10T14:18:55.899Z,630
2017-04-10T14:20:08.446Z,685
2017-04-10T14:21:21.039Z,760
2017-04-10T14:22:33.588Z,680
2017-04-10T14:23:46.130Z,615
2017-04-10T14:24:58.081Z,625
2017-04-10T14:26:10.394Z,655
2017-04-10T14:27:22.318Z,700
2017-04-10T14:28:34.859Z,605
2017-04-10T14:29:47.090Z,590
2017-04-10T14:30:59.309Z,675
2017-04-10T14:32:11.548Z,615
2017-04-10T14:33:23.790Z,655
2017-04-10T14:34:36.040Z,660
2017-04-10T14:35:48.569Z,605
2017-04-10T14:37:00.810Z,610
2017-04-10T14:38:13.035Z,610
2017-04-10T14:39:25.595Z,580
2017-04-10T14:40:38.127Z,650
2017-04-10T14:41:50.652Z,675
2017-04-10T14:43:03.194Z,725
2017-04-10T14:44:15.152Z,680
2017-04-10T14:45:27.407Z,645
2017-04-10T14:46:39.910Z,570
2017-04-10T14:47:52.470Z,595
2017-04-10T14:49:04.999Z,570
2017-04-10T14:50:17.518Z,545
2017-04-10T14:51:29.761Z,550
2017-04-10T14:52:42.312Z,550
2017-04-10T14:53:54.908Z,490
2017-04-10T14:55:07.474Z,540
2017-04-10T14:56:20.026Z,600
2017-04-10T14:57:32.566Z,585
2017-04-10T14:58:45.095Z,625
2017-04-10T14:59:57.654Z,620
2017-04-10T15:01:10.181Z,630
2017-04-10T15:02:22.428Z,685
2017-04-10T15:03:34.949Z,710
2017-04-10T15:04:46.595Z,675
2017-04-10T15:05:59.091Z,695
2017-04-10T15:07:11.640Z,755
2017-04-10T15:08:24.200Z,675
2017-04-10T15:09:36.730Z,535
2017-04-10T15:10:49.300Z,470
2017-04-10T15:12:01.859Z,470
2017-04-10T15:13:14.418Z,520
2017-04-10T15:14:26.640Z,475
2017-04-10T15:15:39.176Z,580
2017-04-10T15:16:51.705Z,495
2017-04-10T15:18:04.276Z,580
2017-04-10T15:19:16.793Z,535
2017-04-10T15:20:29.319Z,535
2017-04-10T15:21:41.877Z,535
2017-04-10T15:22:54.430Z,440
2017-04-10T15:24:06.969Z,415
2017-04-10T15:25:19.529Z,430
2017-04-10T15:26:31.771Z,445
2017-04-10T15:27:44.009Z,460
2017-04-10T15:28:56.560Z,450
2017-04-10T15:30:09.107Z,495
2017-04-10T15:31:21.357Z,540
2017-04-10T15:32:33.876Z,520
2017-04-10T15:33:46.420Z,420
2017-04-10T15:34:58.645Z,455
2017-04-10T15:36:10.906Z,540
2017-04-10T15:37:23.433Z,585
2017-04-10T15:38:35.970Z,485
2017-04-10T15:39:48.477Z,355
2017-04-10T15:41:01.002Z,280
2017-04-10T15:42:13.240Z,240
2017-04-10T15:43:25.761Z,205
2017-04-10T15:44:38.299Z,190
2017-04-10T15:45:50.849Z,175
2017-04-10T15:47:03.376Z,170
2017-04-10T15:48:15.594Z,165
2017-04-10T15:49:27.820Z,170
2017-04-10T15:50:40.362Z,180
2017-04-10T15:51:52.608Z,185
2017-04-10T15:53:05.128Z,190
2017-04-10T15:54:17.666Z,200
2017-04-10T15:55:30.198Z,220
2017-04-10T15:56:42.719Z,245
2017-04-10T15:57:55.262Z,270
2017-04-10T15:59:07.507Z,310
2017-04-10T16:00:19.746Z,355
2017-04-10T16:01:32.328Z,390
2017-04-10T16:02:44.850Z,405
2017-04-10T16:03:57.398Z,395
2017-04-10T16:05:09.938Z,380
2017-04-10T16:06:22.488Z,370
2017-04-10T16:07:35.008Z,365
2017-04-10T16:08:47.551Z,385
2017-04-10T16:10:00.076Z,415
2017-04-10T16:11:12.597Z,430
2017-04-10T16:12:24.814Z,440
2017-04-10T16:13:37.333Z,455
2017-04-10T16:14:49.572Z,450
2017-04-10T16:16:02.122Z,440
2017-04-10T16:17:14.646Z,425
2017-04-10T16:18:26.869Z,395
2017-04-10T16:19:39.388Z,355
2017-04-10T16:20:51.956Z,330
2017-04-10T16:22:04.485Z,310
2017-04-10T16:23:16.747Z,310
2017-04-10T16:24:28.973Z,320
2017-04-10T16:25:41.214Z,325
2017-04-10T16:26:53.740Z,330
2017-04-10T16:28:06.269Z,340
2017-04-10T16:29:18.485Z,340
2017-04-10T16:30:30.758Z,335
2017-04-10T16:31:43.289Z,340
2017-04-10T16:32:55.794Z,290
2017-04-10T16:34:08.319Z,260
2017-04-10T16:35:20.853Z,260
2017-04-10T16:36:33.381Z,220
2017-04-10T16:37:45.901Z,190
2017-04-10T16:38:58.123Z,195
2017-04-10T16:40:10.673Z,200
2017-04-10T16:41:23.256Z,200
2017-04-10T16:42:35.789Z,220
2017-04-10T16:43:48.306Z,225
2017-04-10T16:45:00.832Z,225
2017-04-10T16:46:13.396Z,230
2017-04-10T16:47:25.920Z,210
2017-04-10T16:48:38.444Z,195
2017-04-10T16:49:50.937Z,185